• Join FlightAware (Why Join?)
  • Login
  • US Flag 
09:40PM EDT


 

Airport Tracker/Info


-or-


 

Live Flight TrackerFlight Track Log ✈ FIN646 ✈ 24-Apr-2013 ✈ ESSA / ARN - EFHK / HEL

Flight Track Log - Related Links

Times and Time Zones

All times are in EDT time to prevent confusion due to time zone crossing. See the FIN646 flight status page for this flight to view local times or setup timezone preferences in your user account.

Time Position Orientation Groundspeed Altitude Reporting Facility
EDT Latitude Longitude Course Direction KTS MPH feet Rate Location/Type
12:23PM 59.7301 18.5664 76° East  Level Estimated
12:24PM 59.7571 18.7975 77° East  Level Estimated
12:25PM 59.7838 19.0289 77° East  Level Estimated
12:26PM 59.8100 19.2607 77° East  Level Estimated
12:27PM 59.8358 19.4928 77° East  Level Estimated
12:28PM 59.8612 19.7253 78° East  Level Estimated
12:29PM 59.8862 19.9582 78° East  Level Estimated
12:30PM 59.9108 20.1914 78° East  Level Estimated
12:31PM 59.9349 20.4250 78° East  Level Estimated
12:32PM 59.9587 20.6588 78° East  Level Estimated
12:33PM 59.9820 20.8931 79° East  Level Estimated
12:34PM 60.0049 21.1276 79° East  Level Estimated
12:35PM 60.0274 21.3625 79° East  Level Estimated
12:36PM 60.0495 21.5977 79° East  Level Estimated
12:37PM 60.0712 21.8332 79° East  Level Estimated
12:38PM 60.0924 22.0690 80° East  Level Estimated
12:39PM 60.1133 22.3051 80° East  Level Estimated
12:40PM 60.1337 22.5415 80° East  Level Estimated
12:41PM 60.1536 22.7782 80° East  Level Estimated
12:42PM 60.1732 23.0152 80° East  Level Estimated
12:43PM 60.1923 23.2525 81° East  Level Estimated
12:44PM 60.2110 23.4900 81° East  Level Estimated
12:45PM 60.2293 23.7278 81° East  Level Estimated
12:46PM 60.2472 23.9659 81° East  Level Estimated
12:47PM 60.2646 24.2042 82° East  Level Estimated
12:48PM 60.2817 24.4428 82° East  Level Estimated
12:49PM 60.2982 24.6816 82° East  Level Estimated
12:50PM 60.3144 24.9206 82° East  Level Estimated
12:51PM 60.3172 24.9633 82° East  Level Estimated
12:52PM 60.3172 24.9633 37° Northeast  Level Estimated
12:53PM 60.3172 24.9633 37° Northeast  Level Estimated
12:54PM 60.3172 24.9633 37° Northeast  Level Estimated
12:55PM 60.3172 24.9633 37° Northeast  Level Estimated
12:56PM 60.3172 24.9633 37° Northeast  Level Estimated
12:57PM 60.3172 24.9633 37° Northeast  Level Estimated
12:58PM 60.3172 24.9633 37° Northeast  Level Estimated
12:59PM 60.3172 24.9633 37° Northeast  Level Estimated
01:00PM 60.3172 24.9633 37° Northeast  Level Estimated
01:01PM 60.3172 24.9633 37° Northeast  Level Estimated
01:02PM 60.3172 24.9633 37° Northeast  Level Estimated
01:03PM 60.3172 24.9633 37° Northeast  Level Estimated